Terminal Aerodrome Forecast
Issued by NWS

Home | Current Version | Previous Version | Text Only | Print | Product List | Glossary On
Versions: 1 2 3 4 5 6 7 8 9 10 11 12 13 14 15 16 17 18 19
000
FTUS46 KLOX 070500
TAFSBA
TAF
KSBA 070528Z 0706/0806 VRB03KT P6SM SKC
     FM070800 VRB03KT P6SM FEW025 BKN040
     FM071400 10007KT P6SM SCT025 BKN040
     FM071800 22008KT P6SM SCT025 BKN050
     FM072200 26014G22KT P6SM FEW025 BKN050
     FM080200 26007KT P6SM VCSH BKN025 OVC040=

USA.gov is the U.S. government's official web portal to all federal, state and local government web resources and services.